createdAt,value
2022-11-16T00:02:10.737Z,97548.31
2022-11-16T00:04:37.492Z,97537.91
2022-11-16T00:07:04.454Z,97531.69
2022-11-16T00:09:32.321Z,97533.16
2022-11-16T00:12:02.083Z,97528.53
2022-11-16T00:14:37.809Z,97534.94
2022-11-16T00:17:05.009Z,97522.31
2022-11-16T00:19:31.670Z,97525.44
2022-11-16T00:21:58.726Z,97517.03
2022-11-16T00:24:25.376Z,97521.28
2022-11-16T00:26:54.913Z,97525.34
2022-11-16T00:29:24.079Z,97519.56
2022-11-16T00:31:51.300Z,97513.47
2022-11-16T00:34:18.580Z,97523.88
2022-11-16T00:36:45.349Z,97515.91
2022-11-16T00:39:13.517Z,97516.13
2022-11-16T00:41:40.695Z,97528.13
2022-11-16T00:44:07.812Z,97526.63
2022-11-16T00:46:34.400Z,97518.44
2022-11-16T00:49:01.039Z,97525.16
2022-11-16T00:51:27.645Z,97519.13
2022-11-16T00:53:54.410Z,97511.16
2022-11-16T00:56:21.069Z,97511.03
2022-11-16T00:58:47.641Z,97514.78
2022-11-16T01:01:14.945Z,97510.16
2022-11-16T01:03:41.906Z,97510.84
2022-11-16T01:06:10.949Z,97505.00
2022-11-16T01:08:40.123Z,97510.34
2022-11-16T01:11:26.588Z,97501.00
2022-11-16T01:13:54.018Z,97505.56
2022-11-16T01:16:22.523Z,97501.09
2022-11-16T01:18:51.275Z,97495.31
2022-11-16T01:21:19.036Z,97484.16
2022-11-16T01:23:45.727Z,97486.50
2022-11-16T01:26:12.463Z,97487.84
2022-11-16T01:28:39.064Z,97465.06
2022-11-16T01:31:06.009Z,97466.84
2022-11-16T01:33:32.604Z,97464.56
2022-11-16T01:35:59.135Z,97457.00
2022-11-16T01:38:29.720Z,97456.69
2022-11-16T01:40:56.514Z,97451.13
2022-11-16T01:43:25.774Z,97452.78
2022-11-16T01:45:52.358Z,97450.06
2022-11-16T01:48:27.904Z,97451.44
2022-11-16T01:50:57.632Z,97446.41
2022-11-16T01:53:24.877Z,97440.53
2022-11-16T01:55:52.291Z,97443.56
2022-11-16T01:58:23.833Z,97441.84
2022-11-16T02:00:50.722Z,97437.94
2022-11-16T02:03:19.251Z,97435.88
2022-11-16T02:06:04.176Z,97431.53
2022-11-16T02:09:27.402Z,97426.69
2022-11-16T02:12:08.668Z,97427.34
2022-11-16T02:14:57.105Z,97422.16
2022-11-16T02:18:02.290Z,97421.63
2022-11-16T02:21:03.801Z,97412.91
2022-11-16T02:23:52.420Z,97404.69
2022-11-16T02:26:24.731Z,97406.91
2022-11-16T02:29:28.573Z,97401.84
2022-11-16T02:32:13.807Z,97405.75
2022-11-16T02:34:44.966Z,97403.53
2022-11-16T02:37:16.336Z,97397.53
2022-11-16T02:39:46.728Z,97398.34
2022-11-16T02:42:20.482Z,97393.34
2022-11-16T02:44:50.837Z,97395.19
2022-11-16T02:47:22.570Z,97403.88
2022-11-16T02:49:55.293Z,97395.63
2022-11-16T02:52:23.735Z,97392.16
2022-11-16T02:54:50.501Z,97390.59
2022-11-16T02:57:31.682Z,97390.75
2022-11-16T02:59:59.434Z,97387.88
2022-11-16T03:02:50.921Z,97388.56
2022-11-16T03:05:32.171Z,97386.34
2022-11-16T03:08:14.067Z,97382.34
2022-11-16T03:11:03.193Z,97374.69
2022-11-16T03:13:33.596Z,97379.50
2022-11-16T03:16:05.538Z,97378.94
2022-11-16T03:18:32.488Z,97375.19
2022-11-16T03:21:11.291Z,97371.25
2022-11-16T03:23:38.180Z,97370.59
2022-11-16T03:26:08.551Z,97366.38
2022-11-16T03:28:44.483Z,97358.72
2022-11-16T03:31:20.767Z,97362.41
2022-11-16T03:33:52.936Z,97356.28
2022-11-16T03:36:29.470Z,97357.72
2022-11-16T03:39:01.424Z,97358.47
2022-11-16T03:41:29.973Z,97355.19
2022-11-16T03:43:57.701Z,97359.53
2022-11-16T03:46:24.406Z,97351.22
2022-11-16T03:48:57.350Z,97347.72
2022-11-16T03:51:24.165Z,97344.13
2022-11-16T03:53:50.754Z,97346.56
2022-11-16T03:56:17.333Z,97354.16
2022-11-16T03:58:43.854Z,97347.78
2022-11-16T04:01:10.604Z,97353.09
2022-11-16T04:03:37.152Z,97358.66
2022-11-16T04:06:22.757Z,97343.97
2022-11-16T04:09:07.861Z,97348.34
2022-11-16T04:11:52.981Z,97348.19
2022-11-16T04:14:41.046Z,97359.88
2022-11-16T04:17:32.019Z,97349.81
2022-11-16T04:20:17.461Z,97351.63
2022-11-16T04:23:13.044Z,97348.03
2022-11-16T04:25:41.828Z,97359.19
2022-11-16T04:28:14.793Z,97350.16
2022-11-16T04:31:01.851Z,97342.56
2022-11-16T04:33:49.975Z,97349.19
2022-11-16T04:36:35.378Z,97342.72
2022-11-16T04:39:02.104Z,97341.84
2022-11-16T04:41:49.205Z,97345.09
2022-11-16T04:44:16.046Z,97346.88
2022-11-16T04:47:00.914Z,97340.84
2022-11-16T04:49:27.644Z,97334.56
2022-11-16T04:51:54.430Z,97337.16
2022-11-16T04:54:21.062Z,97336.38
2022-11-16T04:56:47.816Z,97334.97
2022-11-16T04:59:14.778Z,97327.78
2022-11-16T05:02:00.011Z,97328.25
2022-11-16T05:04:26.622Z,97326.47
2022-11-16T05:06:53.212Z,97332.16
2022-11-16T05:09:19.856Z,97322.06
2022-11-16T05:11:46.435Z,97330.56
2022-11-16T05:14:13.033Z,97332.16
2022-11-16T05:16:39.624Z,97335.13
2022-11-16T05:19:24.744Z,97332.47
2022-11-16T05:21:51.281Z,97327.94
2022-11-16T05:24:36.197Z,97332.16
2022-11-16T05:27:08.627Z,97331.72
2022-11-16T05:29:35.198Z,97324.03
2022-11-16T05:32:02.452Z,97327.47
2022-11-16T05:34:29.479Z,97325.53
2022-11-16T05:36:56.900Z,97327.94
2022-11-16T05:39:24.334Z,97332.69
2022-11-16T05:41:51.669Z,97341.56
2022-11-16T05:44:18.693Z,97347.75
2022-11-16T05:46:46.231Z,97340.16
2022-11-16T05:49:13.966Z,97337.16
2022-11-16T05:51:42.332Z,97337.16
2022-11-16T05:54:11.211Z,97336.59
2022-11-16T05:56:38.041Z,97338.44
2022-11-16T05:59:04.840Z,97339.09
2022-11-16T06:01:31.453Z,97342.63
2022-11-16T06:04:02.178Z,97334.00
2022-11-16T06:06:29.217Z,97329.38
2022-11-16T06:08:55.803Z,97332.59
2022-11-16T06:11:22.841Z,97337.22
2022-11-16T06:13:49.714Z,97345.38
2022-11-16T06:16:16.599Z,97336.53
2022-11-16T06:18:45.804Z,97338.22
2022-11-16T06:21:14.350Z,97336.41
2022-11-16T06:23:41.092Z,97346.53
2022-11-16T06:26:08.264Z,97341.47
2022-11-16T06:28:35.760Z,97340.00
2022-11-16T06:31:03.303Z,97351.16
2022-11-16T06:33:33.539Z,97353.28
2022-11-16T06:36:00.431Z,97353.75
2022-11-16T06:38:27.675Z,97340.00
2022-11-16T06:40:56.862Z,97342.84
2022-11-16T06:43:25.042Z,97342.84
2022-11-16T06:45:53.797Z,97338.97
2022-11-16T06:48:20.820Z,97335.25
2022-11-16T06:50:49.284Z,97336.72
2022-11-16T06:53:16.021Z,97345.38
2022-11-16T06:55:42.823Z,97340.75
2022-11-16T06:58:09.564Z,97342.56
2022-11-16T07:00:36.262Z,97358.88
2022-11-16T07:03:03.725Z,97353.09
2022-11-16T07:05:31.072Z,97346.25
2022-11-16T07:07:58.026Z,97351.91
2022-11-16T07:10:25.228Z,97349.78
2022-11-16T07:12:51.866Z,97353.03
2022-11-16T07:15:19.434Z,97345.50
2022-11-16T07:17:45.988Z,97348.44
2022-11-16T07:20:12.780Z,97350.97
2022-11-16T07:22:39.266Z,97352.47
2022-11-16T07:25:06.633Z,97350.28
2022-11-16T07:27:33.200Z,97353.53
2022-11-16T07:30:00.850Z,97361.31
2022-11-16T07:32:28.888Z,97357.00
2022-11-16T07:34:58.950Z,97356.06
2022-11-16T07:37:25.939Z,97360.91
2022-11-16T07:39:52.439Z,97356.16
2022-11-16T07:42:19.222Z,97354.28
2022-11-16T07:44:45.771Z,97355.94
2022-11-16T07:47:12.396Z,97355.00
2022-11-16T07:49:38.894Z,97352.31
2022-11-16T07:52:08.645Z,97352.13
2022-11-16T07:54:35.136Z,97346.03
2022-11-16T07:57:01.837Z,97342.22
2022-11-16T07:59:28.570Z,97348.97
2022-11-16T08:01:55.898Z,97337.78
2022-11-16T08:04:22.649Z,97326.22
2022-11-16T08:06:51.784Z,97320.09
2022-11-16T08:09:18.570Z,97325.03
2022-11-16T08:11:45.238Z,97322.44
2022-11-16T08:14:12.741Z,97320.53
2022-11-16T08:16:39.422Z,97312.41
2022-11-16T08:19:06.093Z,97322.91
2022-11-16T08:21:32.658Z,97319.56
2022-11-16T08:23:59.347Z,97321.09
2022-11-16T08:26:26.174Z,97319.31
2022-11-16T08:28:54.059Z,97312.19
2022-11-16T08:31:24.117Z,97309.41
2022-11-16T08:33:51.957Z,97307.94
2022-11-16T08:36:19.065Z,97299.34
2022-11-16T08:38:47.615Z,97306.66
2022-11-16T08:41:14.319Z,97310.25
2022-11-16T08:43:41.780Z,97304.47
2022-11-16T08:46:10.472Z,97311.19
2022-11-16T08:48:37.949Z,97312.25
2022-11-16T08:51:17.875Z,97303.72
2022-11-16T08:53:45.605Z,97299.47
2022-11-16T08:56:15.378Z,97300.59
2022-11-16T08:58:47.278Z,97294.31
2022-11-16T09:01:19.420Z,97292.09
2022-11-16T09:03:46.635Z,97290.56
2022-11-16T09:06:13.552Z,97297.59
2022-11-16T09:08:42.047Z,97304.88
2022-11-16T09:11:13.845Z,97311.38
2022-11-16T09:13:40.241Z,97310.56
2022-11-16T09:16:06.830Z,97315.31
2022-11-16T09:18:34.219Z,97311.72
2022-11-16T09:21:00.781Z,97321.34
2022-11-16T09:23:27.696Z,97316.44
2022-11-16T09:25:54.432Z,97318.97
2022-11-16T09:28:21.835Z,97319.09
2022-11-16T09:30:50.613Z,97323.03
2022-11-16T09:33:17.272Z,97319.50
2022-11-16T09:35:43.760Z,97318.50
2022-11-16T09:38:11.181Z,97317.94
2022-11-16T09:40:41.928Z,97312.09
2022-11-16T09:43:53.558Z,97313.34
2022-11-16T09:46:29.205Z,97314.75
2022-11-16T09:49:02.164Z,97319.63
2022-11-16T09:51:33.356Z,97302.75
2022-11-16T09:54:06.201Z,97300.50
2022-11-16T09:56:37.324Z,97292.47
2022-11-16T09:59:31.060Z,97299.22
2022-11-16T10:02:37.172Z,97291.25
2022-11-16T10:05:16.642Z,97289.28
2022-11-16T10:07:49.147Z,97287.81
2022-11-16T10:10:18.011Z,97289.31
2022-11-16T10:13:19.732Z,97291.50
2022-11-16T10:16:07.978Z,97288.22
2022-11-16T10:19:19.966Z,97276.16
2022-11-16T10:22:05.281Z,97276.31
2022-11-16T10:24:39.416Z,97272.91
2022-11-16T10:27:25.687Z,97265.00
2022-11-16T10:30:18.060Z,97263.84
2022-11-16T10:32:56.403Z,97264.19
2022-11-16T10:35:31.875Z,97261.31
2022-11-16T10:38:03.884Z,97258.19
2022-11-16T10:40:36.734Z,97245.88
2022-11-16T10:43:14.514Z,97246.50
2022-11-16T10:45:51.942Z,97245.19
2022-11-16T10:48:18.236Z,97230.91
2022-11-16T10:50:47.767Z,97237.81
2022-11-16T10:53:16.152Z,97231.31
2022-11-16T10:55:42.589Z,97235.72
2022-11-16T10:58:09.209Z,97226.25
2022-11-16T11:00:48.210Z,97231.97
2022-11-16T11:03:15.337Z,97229.84
2022-11-16T11:05:52.500Z,97220.53
2022-11-16T11:08:32.592Z,97224.47
2022-11-16T11:11:24.617Z,97222.25
2022-11-16T11:14:11.304Z,97214.59
2022-11-16T11:16:38.280Z,97218.75
2022-11-16T11:19:24.362Z,97217.72
2022-11-16T11:21:56.345Z,97207.22
2022-11-16T11:24:44.010Z,97222.16
2022-11-16T11:27:09.208Z,97217.09
2022-11-16T11:29:40.194Z,97221.47
2022-11-16T11:32:15.157Z,97210.28
2022-11-16T11:34:50.903Z,97218.34
2022-11-16T11:37:25.195Z,97206.16
2022-11-16T11:40:25.155Z,97205.75
2022-11-16T11:43:05.669Z,97215.25
2022-11-16T11:45:54.932Z,97212.69
2022-11-16T11:48:32.111Z,97212.66
2022-11-16T11:51:10.836Z,97218.50
2022-11-16T11:53:55.789Z,97221.50
2022-11-16T11:56:23.035Z,97223.31
2022-11-16T11:58:50.182Z,97222.63
2022-11-16T12:01:24.847Z,97215.19
2022-11-16T12:04:13.262Z,97217.47
2022-11-16T12:06:54.944Z,97214.44
2022-11-16T12:09:36.592Z,97209.75
2022-11-16T12:12:18.897Z,97214.00
2022-11-16T12:15:03.472Z,97210.16
2022-11-16T12:17:48.730Z,97210.41
2022-11-16T12:20:37.782Z,97213.19
2022-11-16T12:23:21.009Z,97216.44
2022-11-16T12:26:14.966Z,97214.94
2022-11-16T12:28:51.789Z,97211.53
2022-11-16T12:31:39.041Z,97204.63
2022-11-16T12:34:05.398Z,97201.94
2022-11-16T12:36:34.756Z,97194.16
2022-11-16T12:39:20.425Z,97198.50
2022-11-16T12:42:21.444Z,97197.09
2022-11-16T12:45:00.035Z,97201.91
2022-11-16T12:47:45.534Z,97208.22
2022-11-16T12:50:36.915Z,97198.88
2022-11-16T12:53:36.273Z,97201.84
2022-11-16T12:56:22.627Z,97202.31
2022-11-16T12:59:25.871Z,97207.97
2022-11-16T13:02:00.583Z,97200.16
2022-11-16T13:04:42.327Z,97200.41
2022-11-16T13:07:13.616Z,97199.25
2022-11-16T13:09:45.999Z,97201.16
2022-11-16T13:12:17.234Z,97198.63
2022-11-16T13:14:47.531Z,97191.78
2022-11-16T13:17:31.915Z,97189.25
2022-11-16T13:20:14.981Z,97194.88
2022-11-16T13:22:57.078Z,97189.81
2022-11-16T13:25:42.441Z,97201.59
2022-11-16T13:28:33.173Z,97199.19
2022-11-16T13:31:36.119Z,97192.44
2022-11-16T13:34:07.650Z,97193.63
2022-11-16T13:36:37.161Z,97196.28
2022-11-16T13:39:05.155Z,97192.50
2022-11-16T13:41:34.902Z,97188.97
2022-11-16T13:44:04.229Z,97197.31
2022-11-16T13:47:05.870Z,97191.97
2022-11-16T13:49:38.076Z,97182.13
2022-11-16T13:52:22.650Z,97193.16
2022-11-16T13:54:54.357Z,97188.25
2022-11-16T13:57:25.741Z,97200.75
2022-11-16T14:00:01.413Z,97191.91
2022-11-16T14:02:31.579Z,97199.22
2022-11-16T14:05:00.747Z,97194.56
2022-11-16T14:07:29.717Z,97189.97
2022-11-16T14:09:56.295Z,97189.44
2022-11-16T14:12:37.839Z,97189.78
2022-11-16T14:15:21.208Z,97192.13
2022-11-16T14:17:51.881Z,97183.66
2022-11-16T14:20:45.661Z,97169.97
2022-11-16T14:23:22.517Z,97170.09
2022-11-16T14:26:11.627Z,97175.50
2022-11-16T14:29:06.117Z,97173.94
2022-11-16T14:31:48.527Z,97168.09
2022-11-16T14:34:18.396Z,97165.94
2022-11-16T14:36:46.646Z,97167.19
2022-11-16T14:39:41.464Z,97156.75
2022-11-16T14:42:18.186Z,97158.94
2022-11-16T14:44:44.997Z,97153.59
2022-11-16T14:47:25.805Z,97154.72
2022-11-16T14:49:54.115Z,97160.19
2022-11-16T14:52:31.466Z,97159.94
2022-11-16T14:55:02.957Z,97158.56
2022-11-16T14:57:29.572Z,97158.59
2022-11-16T15:00:20.157Z,97160.53
2022-11-16T15:02:51.840Z,97164.34
2022-11-16T15:05:21.061Z,97165.31
2022-11-16T15:07:52.272Z,97164.16
2022-11-16T15:10:29.080Z,97169.16
2022-11-16T15:12:58.082Z,97158.91
2022-11-16T15:15:31.468Z,97157.56
2022-11-16T15:18:00.625Z,97159.47
2022-11-16T15:20:29.507Z,97153.53
2022-11-16T15:22:59.069Z,97160.03
2022-11-16T15:25:35.420Z,97148.78
2022-11-16T15:28:05.406Z,97148.03
2022-11-16T15:30:34.938Z,97147.59
2022-11-16T15:33:04.063Z,97148.84
2022-11-16T15:35:31.911Z,97139.63
2022-11-16T15:38:17.995Z,97148.00
2022-11-16T15:40:51.971Z,97143.13
2022-11-16T15:43:21.372Z,97147.03
2022-11-16T15:45:48.617Z,97138.47
2022-11-16T15:48:21.608Z,97138.38
2022-11-16T15:51:05.033Z,97146.06
2022-11-16T15:53:40.320Z,97146.19
2022-11-16T15:56:29.145Z,97147.34
2022-11-16T15:58:58.278Z,97140.41
2022-11-16T16:01:25.917Z,97138.09
2022-11-16T16:04:00.119Z,97139.88
2022-11-16T16:06:50.075Z,97138.53
2022-11-16T16:09:36.803Z,97137.34
2022-11-16T16:12:21.608Z,97137.63
2022-11-16T16:14:49.404Z,97143.94
2022-11-16T16:17:25.722Z,97135.50
2022-11-16T16:20:04.081Z,97136.56
2022-11-16T16:22:33.066Z,97134.16
2022-11-16T16:25:01.417Z,97137.38
2022-11-16T16:27:29.701Z,97135.03
2022-11-16T16:29:57.973Z,97136.69
2022-11-16T16:32:27.143Z,97129.00
2022-11-16T16:34:55.496Z,97132.91
2022-11-16T16:37:22.436Z,97139.59
2022-11-16T16:39:48.875Z,97143.25
2022-11-16T16:42:17.211Z,97134.47
2022-11-16T16:44:45.523Z,97140.88
2022-11-16T16:47:12.242Z,97139.78
2022-11-16T16:49:38.835Z,97122.44
2022-11-16T16:52:06.532Z,97130.81
2022-11-16T16:54:33.500Z,97129.00
2022-11-16T16:57:02.341Z,97129.25
2022-11-16T16:59:31.891Z,97127.16
2022-11-16T17:01:58.995Z,97134.22
2022-11-16T17:04:25.911Z,97133.25
2022-11-16T17:06:53.300Z,97133.00
2022-11-16T17:09:20.231Z,97147.56
2022-11-16T17:11:47.664Z,97132.09
2022-11-16T17:14:14.110Z,97139.53
2022-11-16T17:16:45.015Z,97137.56
2022-11-16T17:19:21.417Z,97141.69
2022-11-16T17:21:50.338Z,97132.50
2022-11-16T17:24:21.324Z,97140.06
2022-11-16T17:26:49.054Z,97137.94
2022-11-16T17:29:15.935Z,97145.25
2022-11-16T17:31:44.886Z,97142.09
2022-11-16T17:34:14.404Z,97139.66
2022-11-16T17:36:41.678Z,97144.47
2022-11-16T17:39:08.280Z,97148.03
2022-11-16T17:41:36.127Z,97143.13
2022-11-16T17:44:05.163Z,97137.97
2022-11-16T17:46:35.379Z,97138.56
2022-11-16T17:49:03.537Z,97142.69
2022-11-16T17:51:31.018Z,97139.81
2022-11-16T17:53:58.525Z,97135.84
2022-11-16T17:56:30.580Z,97139.75
2022-11-16T17:59:00.250Z,97132.72
2022-11-16T18:01:27.997Z,97142.00
2022-11-16T18:03:57.087Z,97146.28
2022-11-16T18:06:25.294Z,97142.69
2022-11-16T18:08:53.638Z,97142.31
2022-11-16T18:11:27.051Z,97145.53
2022-11-16T18:13:56.442Z,97139.91
2022-11-16T18:16:25.184Z,97143.59
2022-11-16T18:18:59.079Z,97143.53
2022-11-16T18:21:26.763Z,97145.06
2022-11-16T18:23:53.534Z,97143.91
2022-11-16T18:26:23.999Z,97137.91
2022-11-16T18:28:51.922Z,97137.75
2022-11-16T18:31:20.623Z,97145.50
2022-11-16T18:33:49.076Z,97140.84
2022-11-16T18:36:16.981Z,97137.81
2022-11-16T18:38:43.584Z,97147.09
2022-11-16T18:41:12.750Z,97138.88
2022-11-16T18:43:39.978Z,97140.75
2022-11-16T18:46:06.814Z,97139.41
2022-11-16T18:48:33.343Z,97147.72
2022-11-16T18:51:00.909Z,97134.50
2022-11-16T18:53:27.948Z,97137.94
2022-11-16T18:55:57.825Z,97143.94
2022-11-16T18:58:49.318Z,97141.31
2022-11-16T19:01:13.296Z,97136.16
2022-11-16T19:03:39.992Z,97139.06
2022-11-16T19:06:08.685Z,97131.84
2022-11-16T19:08:37.319Z,97140.38
2022-11-16T19:11:08.989Z,97134.38
2022-11-16T19:13:36.083Z,97129.63
2022-11-16T19:16:03.020Z,97139.81
2022-11-16T19:18:29.649Z,97135.81
2022-11-16T19:21:09.703Z,97129.88
2022-11-16T19:23:42.716Z,97129.44
2022-11-16T19:26:15.562Z,97131.19
2022-11-16T19:28:43.929Z,97126.56
2022-11-16T19:31:16.338Z,97120.53
2022-11-16T19:33:44.302Z,97126.31
2022-11-16T19:36:16.331Z,97125.19
2022-11-16T19:38:43.400Z,97139.22
2022-11-16T19:41:11.417Z,97138.03
2022-11-16T19:43:38.631Z,97133.47
2022-11-16T19:46:21.258Z,97130.97
2022-11-16T19:48:49.423Z,97123.84
2022-11-16T19:51:20.048Z,97137.88
2022-11-16T19:53:46.733Z,97131.69
2022-11-16T19:56:15.822Z,97135.50
2022-11-16T19:58:43.063Z,97138.03
2022-11-16T20:01:18.541Z,97129.94
2022-11-16T20:03:46.141Z,97125.00
2022-11-16T20:06:21.433Z,97133.28
2022-11-16T20:08:49.984Z,97133.19
2022-11-16T20:11:20.288Z,97139.81
2022-11-16T20:13:47.977Z,97139.63
2022-11-16T20:16:15.544Z,97135.34
2022-11-16T20:18:42.602Z,97125.06
2022-11-16T20:21:13.416Z,97128.28
2022-11-16T20:23:39.792Z,97121.75
2022-11-16T20:26:07.993Z,97128.94
2022-11-16T20:28:39.418Z,97130.72
2022-11-16T20:31:11.979Z,97134.28
2022-11-16T20:33:38.652Z,97127.84
2022-11-16T20:36:07.667Z,97137.13
2022-11-16T20:38:35.198Z,97130.63
2022-11-16T20:41:14.222Z,97135.78
2022-11-16T20:43:42.137Z,97120.66
2022-11-16T20:46:10.141Z,97127.78
2022-11-16T20:48:37.639Z,97127.16
2022-11-16T20:51:04.930Z,97127.38
2022-11-16T20:53:32.104Z,97129.25
2022-11-16T20:56:02.343Z,97119.88
2022-11-16T20:58:30.111Z,97119.66
2022-11-16T21:00:58.984Z,97121.22
2022-11-16T21:03:26.138Z,97127.63
2022-11-16T21:05:52.536Z,97128.97
2022-11-16T21:08:19.483Z,97126.81
2022-11-16T21:10:46.376Z,97122.50
2022-11-16T21:13:36.123Z,97123.97
2022-11-16T21:16:06.472Z,97122.59
2022-11-16T21:18:33.211Z,97125.00
2022-11-16T21:21:05.573Z,97116.84
2022-11-16T21:23:33.916Z,97113.25
2022-11-16T21:26:05.508Z,97125.56
2022-11-16T21:28:32.444Z,97110.97
2022-11-16T21:31:01.267Z,97108.56
2022-11-16T21:33:27.993Z,97110.97
2022-11-16T21:35:55.213Z,97114.09
2022-11-16T21:38:23.050Z,97116.88
2022-11-16T21:40:49.935Z,97113.38
2022-11-16T21:43:16.502Z,97128.16
2022-11-16T21:45:48.278Z,97125.97
2022-11-16T21:48:15.024Z,97132.88
2022-11-16T21:50:41.469Z,97131.00
2022-11-16T21:53:08.077Z,97137.91
2022-11-16T21:55:35.199Z,97135.06
2022-11-16T21:58:03.599Z,97133.72
2022-11-16T22:00:30.238Z,97130.28
2022-11-16T22:02:56.694Z,97139.81
2022-11-16T22:05:41.567Z,97130.66
2022-11-16T22:08:11.484Z,97133.84
2022-11-16T22:10:38.059Z,97135.91
2022-11-16T22:13:04.522Z,97140.66
2022-11-16T22:15:30.960Z,97138.00
2022-11-16T22:17:57.353Z,97137.41
2022-11-16T22:20:23.718Z,97132.19
2022-11-16T22:22:50.112Z,97127.78
2022-11-16T22:25:16.916Z,97134.38
2022-11-16T22:28:13.459Z,97126.38
2022-11-16T22:30:33.676Z,97128.06
2022-11-16T22:33:00.099Z,97120.75
2022-11-16T22:35:26.520Z,97124.31
2022-11-16T22:37:52.993Z,97116.88
2022-11-16T22:40:19.362Z,97117.41
2022-11-16T22:42:46.060Z,97122.09
2022-11-16T22:45:12.438Z,97115.19
2022-11-16T22:47:38.874Z,97114.47
2022-11-16T22:50:05.663Z,97114.03
2022-11-16T22:52:32.103Z,97125.84
2022-11-16T22:54:58.537Z,97123.25
2022-11-16T22:57:24.924Z,97112.97
2022-11-16T22:59:51.314Z,97111.19
2022-11-16T23:02:17.739Z,97123.03
2022-11-16T23:04:44.120Z,97122.06
2022-11-16T23:07:10.517Z,97121.88
2022-11-16T23:09:36.892Z,97118.09
2022-11-16T23:12:21.987Z,97118.09
2022-11-16T23:15:06.762Z,97119.88
2022-11-16T23:17:33.141Z,97115.97
2022-11-16T23:20:18.122Z,97112.75
2022-11-16T23:23:03.256Z,97104.16
2022-11-16T23:25:48.151Z,97106.03
2022-11-16T23:28:16.025Z,97099.31
2022-11-16T23:30:42.503Z,97104.03
2022-11-16T23:33:09.629Z,97100.97
2022-11-16T23:35:36.066Z,97101.81
2022-11-16T23:38:05.472Z,97102.38
2022-11-16T23:40:34.206Z,97093.44
2022-11-16T23:43:19.631Z,97082.78
2022-11-16T23:45:46.279Z,97083.38
2022-11-16T23:48:14.488Z,97095.25
2022-11-16T23:50:41.605Z,97085.91
2022-11-16T23:53:09.582Z,97087.91
2022-11-16T23:55:40.355Z,97080.56
2022-11-16T23:58:11.777Z,97081.31
